createdAt,value
2016-07-10T00:04:12.986Z,0
2016-07-10T00:09:12.395Z,0
2016-07-10T00:14:12.382Z,0
2016-07-10T00:19:13.594Z,0
2016-07-10T00:24:13.592Z,0
2016-07-10T00:29:12.991Z,0
2016-07-10T00:34:12.380Z,0
2016-07-10T00:39:13.596Z,0
2016-07-10T00:44:13.595Z,0
2016-07-10T00:49:13.590Z,0
2016-07-10T00:54:13.591Z,0
2016-07-10T00:59:13.585Z,0
2016-07-10T01:04:13.578Z,0
2016-07-10T01:09:13.576Z,0
2016-07-10T01:14:12.969Z,0
2016-07-10T01:19:13.575Z,0
2016-07-10T01:24:13.569Z,0
2016-07-10T01:29:13.567Z,0
2016-07-10T01:34:12.955Z,0
2016-07-10T01:39:13.564Z,0
2016-07-10T01:44:13.550Z,0
2016-07-10T01:49:12.947Z,0
2016-07-10T01:54:12.931Z,0
2016-07-10T01:59:13.538Z,0
2016-07-10T02:04:12.926Z,0
2016-07-10T02:09:13.529Z,0
2016-07-10T02:14:13.533Z,0
2016-07-10T02:19:12.315Z,0
2016-07-10T02:24:13.501Z,0
2016-07-10T02:29:13.507Z,0
2016-07-10T02:34:13.498Z,0
2016-07-10T02:39:13.481Z,0
2016-07-10T02:44:12.877Z,0
2016-07-10T02:49:13.468Z,0
2016-07-10T02:54:12.857Z,0
2016-07-10T02:59:13.457Z,0
2016-07-10T03:04:13.449Z,0
2016-07-10T03:09:13.437Z,0
2016-07-10T03:14:13.437Z,0
2016-07-10T03:19:13.419Z,5
2016-07-10T03:24:12.821Z,5
2016-07-10T03:29:12.811Z,10
2016-07-10T03:34:13.415Z,15
2016-07-10T03:39:12.790Z,25
2016-07-10T03:44:13.390Z,30
2016-07-10T03:49:12.799Z,40
2016-07-10T03:54:13.369Z,50
2016-07-10T03:59:12.758Z,65
2016-07-10T04:04:13.358Z,70
2016-07-10T04:09:13.371Z,80
2016-07-10T04:14:12.131Z,85
2016-07-10T04:19:12.719Z,90
2016-07-10T04:24:13.334Z,95
2016-07-10T04:29:13.335Z,120
2016-07-10T04:34:13.313Z,115
2016-07-10T04:39:13.311Z,135
2016-07-10T04:44:12.703Z,170
2016-07-10T04:49:13.310Z,210
2016-07-10T04:54:13.307Z,270
2016-07-10T04:59:13.319Z,280
2016-07-10T05:04:13.311Z,290
2016-07-10T05:09:13.314Z,250
2016-07-10T05:14:12.722Z,320
2016-07-10T05:19:13.336Z,390
2016-07-10T05:24:13.335Z,350
2016-07-10T05:29:13.350Z,335
2016-07-10T05:34:13.346Z,245
2016-07-10T05:39:12.756Z,245
2016-07-10T05:44:12.757Z,255
2016-07-10T05:49:13.378Z,215
2016-07-10T05:54:13.382Z,300
2016-07-10T05:59:12.780Z,250
2016-07-10T06:04:12.793Z,390
2016-07-10T06:09:12.787Z,305
2016-07-10T06:14:12.795Z,470
2016-07-10T06:19:13.411Z,1270
2016-07-10T06:24:13.434Z,825
2016-07-10T06:29:12.221Z,810
2016-07-10T06:34:12.234Z,505
2016-07-10T06:39:12.839Z,845
2016-07-10T06:44:12.848Z,3170
2016-07-10T06:49:12.263Z,400
2016-07-10T06:54:12.876Z,490
2016-07-10T06:59:13.485Z,610
2016-07-10T07:04:13.503Z,595
2016-07-10T07:09:13.502Z,1160
2016-07-10T07:14:13.524Z,600
2016-07-10T07:19:12.917Z,675
2016-07-10T07:24:12.932Z,590
2016-07-10T07:29:13.546Z,560
2016-07-10T07:34:12.355Z,1380
2016-07-10T07:39:13.571Z,3290
2016-07-10T07:44:12.977Z,3020
2016-07-10T07:49:13.598Z,2965
2016-07-10T07:54:13.628Z,1590
2016-07-10T07:59:12.435Z,2545
2016-07-10T08:04:13.676Z,2500
2016-07-10T08:09:13.695Z,3005
2016-07-10T08:14:13.712Z,2775
2016-07-10T08:19:13.134Z,2810
2016-07-10T08:24:13.774Z,2750
2016-07-10T08:29:13.176Z,3060
2016-07-10T08:34:13.813Z,2980
2016-07-10T08:39:13.229Z,2850
2016-07-10T08:44:13.262Z,3145
2016-07-10T08:49:13.890Z,3215
2016-07-10T08:54:13.906Z,3260
2016-07-10T08:59:13.937Z,2930
2016-07-10T09:04:13.377Z,1430
2016-07-10T09:09:14.002Z,1645
2016-07-10T09:14:14.005Z,2830
2016-07-10T09:19:13.430Z,3290
2016-07-10T09:24:14.061Z,1715
2016-07-10T09:29:14.080Z,800
2016-07-10T09:34:13.496Z,2020
2016-07-10T09:39:13.526Z,2455
2016-07-10T09:44:12.946Z,1690
2016-07-10T09:49:14.164Z,2275
2016-07-10T09:54:13.584Z,2760
2016-07-10T09:59:14.213Z,2495
2016-07-10T10:04:14.242Z,2720
2016-07-10T10:09:13.067Z,2520
2016-07-10T10:14:14.300Z,2380
2016-07-10T10:19:14.310Z,2400
2016-07-10T10:24:14.353Z,2270
2016-07-10T10:29:13.163Z,2065
2016-07-10T10:34:13.185Z,700
2016-07-10T10:39:13.211Z,1840
2016-07-10T10:44:13.847Z,610
2016-07-10T10:49:14.467Z,1560
2016-07-10T10:54:13.887Z,555
2016-07-10T10:59:13.306Z,875
2016-07-10T11:04:13.938Z,1125
2016-07-10T11:09:14.564Z,1200
2016-07-10T11:14:13.969Z,680
2016-07-10T11:19:14.585Z,610
2016-07-10T11:24:14.006Z,600
2016-07-10T11:29:14.015Z,510
2016-07-10T11:34:14.653Z,545
2016-07-10T11:39:13.459Z,575
2016-07-10T11:44:14.070Z,445
2016-07-10T11:49:14.695Z,440
2016-07-10T11:54:14.103Z,430
2016-07-10T11:59:14.119Z,475
2016-07-10T12:04:14.759Z,385
2016-07-10T12:09:14.780Z,390
2016-07-10T12:14:14.192Z,425
2016-07-10T12:19:14.810Z,455
2016-07-10T12:24:14.824Z,460
2016-07-10T12:29:14.239Z,485
2016-07-10T12:34:13.641Z,575
2016-07-10T12:39:14.869Z,450
2016-07-10T12:44:13.698Z,610
2016-07-10T12:49:13.099Z,415
2016-07-10T12:54:14.329Z,445
2016-07-10T12:59:14.953Z,505
2016-07-10T13:04:14.357Z,450
2016-07-10T13:09:14.375Z,475
2016-07-10T13:14:15.003Z,465
2016-07-10T13:19:15.014Z,475
2016-07-10T13:24:14.428Z,510
2016-07-10T13:29:15.049Z,520
2016-07-10T13:34:15.079Z,575
2016-07-10T13:39:15.099Z,505
2016-07-10T13:44:15.101Z,515
2016-07-10T13:49:14.517Z,445
2016-07-10T13:54:15.142Z,475
2016-07-10T13:59:15.153Z,480
2016-07-10T14:04:15.169Z,495
2016-07-10T14:09:15.184Z,520
2016-07-10T14:14:14.614Z,485
2016-07-10T14:19:15.236Z,520
2016-07-10T14:24:14.634Z,525
2016-07-10T14:29:15.279Z,510
2016-07-10T14:34:14.070Z,525
2016-07-10T14:39:15.314Z,510
2016-07-10T14:44:15.311Z,510
2016-07-10T14:49:14.731Z,510
2016-07-10T14:54:15.351Z,520
2016-07-10T14:59:15.384Z,495
2016-07-10T15:04:15.392Z,455
2016-07-10T15:09:14.803Z,480
2016-07-10T15:14:14.826Z,455
2016-07-10T15:19:14.834Z,430
2016-07-10T15:24:14.247Z,405
2016-07-10T15:29:14.879Z,340
2016-07-10T15:34:15.481Z,320
2016-07-10T15:39:15.508Z,340
2016-07-10T15:44:15.547Z,270
